sensor_id;sensor_type;location;lat;lon;timestamp;temperature;humidity
17571;DHT22;8903;52.220;20.978;2023-09-18T00:00:02;19.70;99.90
17571;DHT22;8903;52.220;20.978;2023-09-18T00:02:34;19.60;99.90
17571;DHT22;8903;52.220;20.978;2023-09-18T00:05:01;19.60;99.90
17571;DHT22;8903;52.220;20.978;2023-09-18T00:07:28;19.60;99.90
17571;DHT22;8903;52.220;20.978;2023-09-18T00:09:55;19.60;99.90
17571;DHT22;8903;52.220;20.978;2023-09-18T00:12:22;19.60;99.90
17571;DHT22;8903;52.220;20.978;2023-09-18T00:14:49;19.50;99.90
17571;DHT22;8903;52.220;20.978;2023-09-18T00:17:18;19.50;99.90
17571;DHT22;8903;52.220;20.978;2023-09-18T00:19:45;19.40;99.90
17571;DHT22;8903;52.220;20.978;2023-09-18T00:22:12;19.40;99.90
17571;DHT22;8903;52.220;20.978;2023-09-18T00:24:39;19.40;99.90
17571;DHT22;8903;52.220;20.978;2023-09-18T00:27:06;19.30;99.90
17571;DHT22;8903;52.220;20.978;2023-09-18T00:29:33;19.30;99.90
17571;DHT22;8903;52.220;20.978;2023-09-18T00:32:00;19.20;99.90
17571;DHT22;8903;52.220;20.978;2023-09-18T00:34:29;19.20;99.90
17571;DHT22;8903;52.220;20.978;2023-09-18T00:36:57;19.20;99.90
17571;DHT22;8903;52.220;20.978;2023-09-18T00:39:24;19.20;99.90
17571;DHT22;8903;52.220;20.978;2023-09-18T00:41:52;19.10;99.90
17571;DHT22;8903;52.220;20.978;2023-09-18T00:44:20;19.10;99.90
17571;DHT22;8903;52.220;20.978;2023-09-18T00:46:47;19.10;99.90
17571;DHT22;8903;52.220;20.978;2023-09-18T00:49:15;19.10;99.90
17571;DHT22;8903;52.220;20.978;2023-09-18T00:51:44;19.00;99.90
17571;DHT22;8903;52.220;20.978;2023-09-18T00:54:14;19.00;99.90
17571;DHT22;8903;52.220;20.978;2023-09-18T00:56:44;19.00;99.90
17571;DHT22;8903;52.220;20.978;2023-09-18T00:59:12;19.00;99.90
17571;DHT22;8903;52.220;20.978;2023-09-18T01:01:40;19.00;99.90
17571;DHT22;8903;52.220;20.978;2023-09-18T01:04:08;18.90;99.90
17571;DHT22;8903;52.220;20.978;2023-09-18T01:06:36;18.80;99.90
17571;DHT22;8903;52.220;20.978;2023-09-18T01:09:05;18.80;99.90
17571;DHT22;8903;52.220;20.978;2023-09-18T01:11:49;18.70;99.90
17571;DHT22;8903;52.220;20.978;2023-09-18T01:14:23;18.70;99.90
17571;DHT22;8903;52.220;20.978;2023-09-18T01:16:55;18.70;99.90
17571;DHT22;8903;52.220;20.978;2023-09-18T01:19:39;18.70;99.90
17571;DHT22;8903;52.220;20.978;2023-09-18T01:22:07;18.70;99.90
17571;DHT22;8903;52.220;20.978;2023-09-18T01:24:37;18.70;99.90
17571;DHT22;8903;52.220;20.978;2023-09-18T01:27:06;18.70;99.90
17571;DHT22;8903;52.220;20.978;2023-09-18T01:29:33;18.60;99.90
17571;DHT22;8903;52.220;20.978;2023-09-18T01:32:00;18.60;99.90
17571;DHT22;8903;52.220;20.978;2023-09-18T01:34:31;18.60;99.90
17571;DHT22;8903;52.220;20.978;2023-09-18T01:36:59;18.60;99.90
17571;DHT22;8903;52.220;20.978;2023-09-18T01:39:29;18.60;99.90
17571;DHT22;8903;52.220;20.978;2023-09-18T01:41:59;18.60;99.90
17571;DHT22;8903;52.220;20.978;2023-09-18T01:44:27;18.60;99.90
17571;DHT22;8903;52.220;20.978;2023-09-18T01:46:57;18.50;99.90
17571;DHT22;8903;52.220;20.978;2023-09-18T01:49:29;18.50;99.90
17571;DHT22;8903;52.220;20.978;2023-09-18T01:51:57;18.50;99.90
17571;DHT22;8903;52.220;20.978;2023-09-18T01:54:24;18.60;99.90
17571;DHT22;8903;52.220;20.978;2023-09-18T01:56:51;18.60;99.90
17571;DHT22;8903;52.220;20.978;2023-09-18T01:59:21;18.60;99.90
17571;DHT22;8903;52.220;20.978;2023-09-18T02:01:49;18.60;99.90
17571;DHT22;8903;52.220;20.978;2023-09-18T02:04:16;18.60;99.90
17571;DHT22;8903;52.220;20.978;2023-09-18T02:06:45;18.60;99.90
17571;DHT22;8903;52.220;20.978;2023-09-18T02:09:12;18.60;99.90
17571;DHT22;8903;52.220;20.978;2023-09-18T02:11:41;18.50;99.90
17571;DHT22;8903;52.220;20.978;2023-09-18T02:14:09;18.50;99.90
17571;DHT22;8903;52.220;20.978;2023-09-18T02:16:38;18.50;99.90
17571;DHT22;8903;52.220;20.978;2023-09-18T02:19:07;18.60;99.90
17571;DHT22;8903;52.220;20.978;2023-09-18T02:21:35;18.50;99.90
17571;DHT22;8903;52.220;20.978;2023-09-18T02:24:02;18.60;99.90
17571;DHT22;8903;52.220;20.978;2023-09-18T02:26:30;18.60;99.90
17571;DHT22;8903;52.220;20.978;2023-09-18T02:28:59;18.60;99.90
17571;DHT22;8903;52.220;20.978;2023-09-18T02:31:26;18.60;99.90
17571;DHT22;8903;52.220;20.978;2023-09-18T02:33:55;18.60;99.90
17571;DHT22;8903;52.220;20.978;2023-09-18T02:36:22;18.60;99.90
17571;DHT22;8903;52.220;20.978;2023-09-18T02:38:49;18.60;99.90
17571;DHT22;8903;52.220;20.978;2023-09-18T02:41:16;18.70;99.90
17571;DHT22;8903;52.220;20.978;2023-09-18T02:43:43;18.70;99.90
17571;DHT22;8903;52.220;20.978;2023-09-18T02:46:10;18.70;99.90
17571;DHT22;8903;52.220;20.978;2023-09-18T02:48:37;18.70;99.90
17571;DHT22;8903;52.220;20.978;2023-09-18T02:51:06;18.70;99.90
17571;DHT22;8903;52.220;20.978;2023-09-18T02:53:33;18.70;99.90
17571;DHT22;8903;52.220;20.978;2023-09-18T02:56:00;18.70;99.90
17571;DHT22;8903;52.220;20.978;2023-09-18T02:58:27;18.70;99.90
17571;DHT22;8903;52.220;20.978;2023-09-18T03:00:57;18.70;99.90
17571;DHT22;8903;52.220;20.978;2023-09-18T03:03:25;18.70;99.90
17571;DHT22;8903;52.220;20.978;2023-09-18T03:05:52;18.70;99.90
17571;DHT22;8903;52.220;20.978;2023-09-18T03:08:21;18.70;99.90
17571;DHT22;8903;52.220;20.978;2023-09-18T03:10:48;18.70;99.90
17571;DHT22;8903;52.220;20.978;2023-09-18T03:13:15;18.70;99.90
17571;DHT22;8903;52.220;20.978;2023-09-18T03:15:45;18.60;99.90
17571;DHT22;8903;52.220;20.978;2023-09-18T03:18:13;18.60;99.90
17571;DHT22;8903;52.220;20.978;2023-09-18T03:20:42;18.60;99.90
17571;DHT22;8903;52.220;20.978;2023-09-18T03:23:09;18.60;99.90
17571;DHT22;8903;52.220;20.978;2023-09-18T03:25:37;18.60;99.90
17571;DHT22;8903;52.220;20.978;2023-09-18T03:28:05;18.50;99.90
17571;DHT22;8903;52.220;20.978;2023-09-18T03:30:33;18.50;99.90
17571;DHT22;8903;52.220;20.978;2023-09-18T03:33:01;18.50;99.90
17571;DHT22;8903;52.220;20.978;2023-09-18T03:35:30;18.50;99.90
17571;DHT22;8903;52.220;20.978;2023-09-18T03:37:58;18.50;99.90
17571;DHT22;8903;52.220;20.978;2023-09-18T03:40:25;18.50;99.90
17571;DHT22;8903;52.220;20.978;2023-09-18T03:42:54;18.50;99.90
17571;DHT22;8903;52.220;20.978;2023-09-18T03:45:21;18.50;99.90
17571;DHT22;8903;52.220;20.978;2023-09-18T03:47:49;18.50;99.90
17571;DHT22;8903;52.220;20.978;2023-09-18T03:50:17;18.50;99.90
17571;DHT22;8903;52.220;20.978;2023-09-18T03:52:43;18.50;99.90
17571;DHT22;8903;52.220;20.978;2023-09-18T03:55:11;18.50;99.90
17571;DHT22;8903;52.220;20.978;2023-09-18T03:57:39;18.50;99.90
17571;DHT22;8903;52.220;20.978;2023-09-18T04:00:08;18.50;99.90
17571;DHT22;8903;52.220;20.978;2023-09-18T04:02:40;18.50;99.90
17571;DHT22;8903;52.220;20.978;2023-09-18T04:05:07;18.50;99.90
17571;DHT22;8903;52.220;20.978;2023-09-18T04:07:35;18.50;99.90
17571;DHT22;8903;52.220;20.978;2023-09-18T04:10:02;18.40;99.90
17571;DHT22;8903;52.220;20.978;2023-09-18T04:12:31;18.40;99.90
17571;DHT22;8903;52.220;20.978;2023-09-18T04:14:58;18.50;99.90
17571;DHT22;8903;52.220;20.978;2023-09-18T04:17:27;18.40;99.90
17571;DHT22;8903;52.220;20.978;2023-09-18T04:19:54;18.40;99.90
17571;DHT22;8903;52.220;20.978;2023-09-18T04:22:21;18.40;99.90
17571;DHT22;8903;52.220;20.978;2023-09-18T04:24:48;18.50;99.90
17571;DHT22;8903;52.220;20.978;2023-09-18T04:27:15;18.40;99.90
17571;DHT22;8903;52.220;20.978;2023-09-18T04:29:42;18.40;99.90
17571;DHT22;8903;52.220;20.978;2023-09-18T04:32:09;18.40;99.90
17571;DHT22;8903;52.220;20.978;2023-09-18T04:34:37;18.40;99.90
17571;DHT22;8903;52.220;20.978;2023-09-18T04:37:05;18.50;99.90
17571;DHT22;8903;52.220;20.978;2023-09-18T04:39:33;18.40;99.90
17571;DHT22;8903;52.220;20.978;2023-09-18T04:42:02;18.40;99.90
17571;DHT22;8903;52.220;20.978;2023-09-18T04:44:31;18.40;99.90
17571;DHT22;8903;52.220;20.978;2023-09-18T04:46:58;18.40;99.90
17571;DHT22;8903;52.220;20.978;2023-09-18T04:49:25;18.40;99.90
17571;DHT22;8903;52.220;20.978;2023-09-18T04:52:01;18.40;99.90
17571;DHT22;8903;52.220;20.978;2023-09-18T04:54:30;18.40;99.90
17571;DHT22;8903;52.220;20.978;2023-09-18T04:56:57;18.40;99.90
17571;DHT22;8903;52.220;20.978;2023-09-18T04:59:25;18.40;99.90
17571;DHT22;8903;52.220;20.978;2023-09-18T05:01:52;18.40;99.90
17571;DHT22;8903;52.220;20.978;2023-09-18T05:04:20;18.40;99.90
17571;DHT22;8903;52.220;20.978;2023-09-18T05:06:47;18.50;99.90
17571;DHT22;8903;52.220;20.978;2023-09-18T05:09:15;18.50;99.90
17571;DHT22;8903;52.220;20.978;2023-09-18T05:11:42;18.50;99.90
17571;DHT22;8903;52.220;20.978;2023-09-18T05:14:09;18.50;99.90
17571;DHT22;8903;52.220;20.978;2023-09-18T05:16:36;18.50;99.90
17571;DHT22;8903;52.220;20.978;2023-09-18T05:19:03;18.50;99.90
17571;DHT22;8903;52.220;20.978;2023-09-18T05:21:30;18.50;99.90
17571;DHT22;8903;52.220;20.978;2023-09-18T05:23:56;18.50;99.90
17571;DHT22;8903;52.220;20.978;2023-09-18T05:26:25;18.50;99.90
17571;DHT22;8903;52.220;20.978;2023-09-18T05:28:53;18.60;99.90
17571;DHT22;8903;52.220;20.978;2023-09-18T05:31:20;18.60;99.90
17571;DHT22;8903;52.220;20.978;2023-09-18T05:33:47;18.60;99.90
17571;DHT22;8903;52.220;20.978;2023-09-18T05:36:14;18.60;99.90
17571;DHT22;8903;52.220;20.978;2023-09-18T05:38:41;18.60;99.90
17571;DHT22;8903;52.220;20.978;2023-09-18T05:41:09;18.60;99.90
17571;DHT22;8903;52.220;20.978;2023-09-18T05:43:37;18.70;99.90
17571;DHT22;8903;52.220;20.978;2023-09-18T05:46:04;18.70;99.90
17571;DHT22;8903;52.220;20.978;2023-09-18T05:48:31;18.70;99.90
17571;DHT22;8903;52.220;20.978;2023-09-18T05:50:58;18.80;99.90
17571;DHT22;8903;52.220;20.978;2023-09-18T05:53:25;18.80;99.90
17571;DHT22;8903;52.220;20.978;2023-09-18T05:55:52;18.90;99.90
17571;DHT22;8903;52.220;20.978;2023-09-18T05:58:19;18.90;99.90
17571;DHT22;8903;52.220;20.978;2023-09-18T06:00:51;18.90;99.90
17571;DHT22;8903;52.220;20.978;2023-09-18T06:03:18;19.00;99.90
17571;DHT22;8903;52.220;20.978;2023-09-18T06:05:47;19.00;99.90
17571;DHT22;8903;52.220;20.978;2023-09-18T06:08:14;19.00;99.90
17571;DHT22;8903;52.220;20.978;2023-09-18T06:10:41;19.00;99.90
17571;DHT22;8903;52.220;20.978;2023-09-18T06:13:07;19.10;99.90
17571;DHT22;8903;52.220;20.978;2023-09-18T06:15:34;19.10;99.90
17571;DHT22;8903;52.220;20.978;2023-09-18T06:18:03;19.10;99.90
17571;DHT22;8903;52.220;20.978;2023-09-18T06:20:32;19.10;99.90
17571;DHT22;8903;52.220;20.978;2023-09-18T06:22:59;19.20;99.90
17571;DHT22;8903;52.220;20.978;2023-09-18T06:25:25;19.20;99.90
17571;DHT22;8903;52.220;20.978;2023-09-18T06:27:52;19.20;99.90
17571;DHT22;8903;52.220;20.978;2023-09-18T06:30:19;19.30;99.90
17571;DHT22;8903;52.220;20.978;2023-09-18T06:32:46;19.40;99.90
17571;DHT22;8903;52.220;20.978;2023-09-18T06:35:15;19.40;99.90
17571;DHT22;8903;52.220;20.978;2023-09-18T06:37:42;19.50;99.90
17571;DHT22;8903;52.220;20.978;2023-09-18T06:40:09;19.60;99.90
17571;DHT22;8903;52.220;20.978;2023-09-18T06:42:36;19.70;99.90
17571;DHT22;8903;52.220;20.978;2023-09-18T06:45:04;19.80;99.90
17571;DHT22;8903;52.220;20.978;2023-09-18T06:47:32;19.90;99.90
17571;DHT22;8903;52.220;20.978;2023-09-18T06:49:59;20.00;99.90
17571;DHT22;8903;52.220;20.978;2023-09-18T06:52:28;20.10;99.90
17571;DHT22;8903;52.220;20.978;2023-09-18T06:54:55;20.20;99.90
17571;DHT22;8903;52.220;20.978;2023-09-18T06:57:23;20.30;99.90
17571;DHT22;8903;52.220;20.978;2023-09-18T06:59:50;20.40;99.90
17571;DHT22;8903;52.220;20.978;2023-09-18T07:02:17;20.60;99.90
17571;DHT22;8903;52.220;20.978;2023-09-18T07:04:44;20.70;99.90
17571;DHT22;8903;52.220;20.978;2023-09-18T07:07:12;20.80;99.90
17571;DHT22;8903;52.220;20.978;2023-09-18T07:09:41;20.90;99.90
17571;DHT22;8903;52.220;20.978;2023-09-18T07:12:08;21.10;99.90
17571;DHT22;8903;52.220;20.978;2023-09-18T07:14:35;21.20;99.90
17571;DHT22;8903;52.220;20.978;2023-09-18T07:17:03;21.30;99.90
17571;DHT22;8903;52.220;20.978;2023-09-18T07:19:30;21.40;99.90
17571;DHT22;8903;52.220;20.978;2023-09-18T07:21:58;21.50;99.90
17571;DHT22;8903;52.220;20.978;2023-09-18T07:24:25;21.60;99.90
17571;DHT22;8903;52.220;20.978;2023-09-18T07:26:53;21.70;99.90
17571;DHT22;8903;52.220;20.978;2023-09-18T07:29:20;21.80;99.90
17571;DHT22;8903;52.220;20.978;2023-09-18T07:31:47;22.00;99.90
17571;DHT22;8903;52.220;20.978;2023-09-18T07:34:14;22.00;99.90
17571;DHT22;8903;52.220;20.978;2023-09-18T07:36:43;22.00;99.90
17571;DHT22;8903;52.220;20.978;2023-09-18T07:39:11;22.00;99.90
17571;DHT22;8903;52.220;20.978;2023-09-18T07:41:38;22.00;99.90
17571;DHT22;8903;52.220;20.978;2023-09-18T07:44:06;22.10;99.90
17571;DHT22;8903;52.220;20.978;2023-09-18T07:46:33;22.10;99.90
17571;DHT22;8903;52.220;20.978;2023-09-18T07:49:00;22.20;99.90
17571;DHT22;8903;52.220;20.978;2023-09-18T07:51:27;22.30;99.90
17571;DHT22;8903;52.220;20.978;2023-09-18T07:53:55;22.40;99.90
17571;DHT22;8903;52.220;20.978;2023-09-18T07:56:22;22.50;99.90
17571;DHT22;8903;52.220;20.978;2023-09-18T07:58:49;22.50;99.90
17571;DHT22;8903;52.220;20.978;2023-09-18T08:01:17;22.60;99.90
17571;DHT22;8903;52.220;20.978;2023-09-18T08:03:48;22.80;99.90
17571;DHT22;8903;52.220;20.978;2023-09-18T08:06:15;22.90;99.90
17571;DHT22;8903;52.220;20.978;2023-09-18T08:08:44;22.90;99.90
17571;DHT22;8903;52.220;20.978;2023-09-18T08:11:12;23.10;99.90
17571;DHT22;8903;52.220;20.978;2023-09-18T08:13:39;23.10;99.90
17571;DHT22;8903;52.220;20.978;2023-09-18T08:16:06;23.20;99.90
17571;DHT22;8903;52.220;20.978;2023-09-18T08:18:35;23.20;99.90
17571;DHT22;8903;52.220;20.978;2023-09-18T08:21:04;23.30;99.90
17571;DHT22;8903;52.220;20.978;2023-09-18T08:23:31;23.30;99.90
17571;DHT22;8903;52.220;20.978;2023-09-18T08:25:58;23.20;99.90
17571;DHT22;8903;52.220;20.978;2023-09-18T08:28:25;23.30;99.90
17571;DHT22;8903;52.220;20.978;2023-09-18T08:30:52;23.40;99.90
17571;DHT22;8903;52.220;20.978;2023-09-18T08:33:20;23.50;99.90
17571;DHT22;8903;52.220;20.978;2023-09-18T08:35:48;23.60;99.90
17571;DHT22;8903;52.220;20.978;2023-09-18T08:38:16;23.60;99.90
17571;DHT22;8903;52.220;20.978;2023-09-18T08:40:43;23.70;99.90
17571;DHT22;8903;52.220;20.978;2023-09-18T08:43:12;23.70;99.90
17571;DHT22;8903;52.220;20.978;2023-09-18T08:45:50;23.80;99.90
17571;DHT22;8903;52.220;20.978;2023-09-18T08:48:19;23.90;99.90
17571;DHT22;8903;52.220;20.978;2023-09-18T08:50:48;24.00;99.90
17571;DHT22;8903;52.220;20.978;2023-09-18T08:53:16;24.00;99.90
17571;DHT22;8903;52.220;20.978;2023-09-18T08:55:43;24.10;99.90
17571;DHT22;8903;52.220;20.978;2023-09-18T08:58:10;24.20;99.90
17571;DHT22;8903;52.220;20.978;2023-09-18T09:00:37;24.20;99.90
17571;DHT22;8903;52.220;20.978;2023-09-18T09:03:04;24.30;99.90
17571;DHT22;8903;52.220;20.978;2023-09-18T09:05:31;24.30;99.90
17571;DHT22;8903;52.220;20.978;2023-09-18T09:08:00;24.40;99.90
17571;DHT22;8903;52.220;20.978;2023-09-18T09:10:27;24.50;99.90
17571;DHT22;8903;52.220;20.978;2023-09-18T09:12:56;24.40;99.90
17571;DHT22;8903;52.220;20.978;2023-09-18T09:15:26;24.50;99.90
17571;DHT22;8903;52.220;20.978;2023-09-18T09:18:03;24.50;99.90
17571;DHT22;8903;52.220;20.978;2023-09-18T09:20:30;24.50;99.90
17571;DHT22;8903;52.220;20.978;2023-09-18T09:23:02;24.60;99.90
17571;DHT22;8903;52.220;20.978;2023-09-18T09:25:31;24.70;99.90
17571;DHT22;8903;52.220;20.978;2023-09-18T09:27:59;24.80;99.90
17571;DHT22;8903;52.220;20.978;2023-09-18T09:30:27;24.90;99.90
17571;DHT22;8903;52.220;20.978;2023-09-18T09:32:56;25.00;99.90
17571;DHT22;8903;52.220;20.978;2023-09-18T09:35:25;25.00;99.90
17571;DHT22;8903;52.220;20.978;2023-09-18T09:38:01;25.10;99.90
17571;DHT22;8903;52.220;20.978;2023-09-18T09:40:29;25.10;99.90
17571;DHT22;8903;52.220;20.978;2023-09-18T09:42:57;25.10;99.90
17571;DHT22;8903;52.220;20.978;2023-09-18T09:45:28;25.20;99.90
17571;DHT22;8903;52.220;20.978;2023-09-18T09:47:57;25.20;99.90
17571;DHT22;8903;52.220;20.978;2023-09-18T09:50:24;25.20;99.90
17571;DHT22;8903;52.220;20.978;2023-09-18T09:52:53;25.30;99.90
17571;DHT22;8903;52.220;20.978;2023-09-18T09:55:24;25.40;99.90
17571;DHT22;8903;52.220;20.978;2023-09-18T09:57:53;25.50;99.90
17571;DHT22;8903;52.220;20.978;2023-09-18T10:00:23;25.50;99.90
17571;DHT22;8903;52.220;20.978;2023-09-18T10:02:58;25.50;99.90
17571;DHT22;8903;52.220;20.978;2023-09-18T10:05:29;25.60;99.90
17571;DHT22;8903;52.220;20.978;2023-09-18T10:08:02;25.60;99.90
17571;DHT22;8903;52.220;20.978;2023-09-18T10:10:33;25.80;99.90
17571;DHT22;8903;52.220;20.978;2023-09-18T10:13:07;25.90;99.90
17571;DHT22;8903;52.220;20.978;2023-09-18T10:15:37;26.00;99.90
17571;DHT22;8903;52.220;20.978;2023-09-18T10:18:07;26.00;99.90
17571;DHT22;8903;52.220;20.978;2023-09-18T10:20:40;26.20;99.90
17571;DHT22;8903;52.220;20.978;2023-09-18T10:23:19;26.10;99.90
17571;DHT22;8903;52.220;20.978;2023-09-18T10:25:54;26.10;99.90
17571;DHT22;8903;52.220;20.978;2023-09-18T10:28:23;26.10;99.90
17571;DHT22;8903;52.220;20.978;2023-09-18T10:30:52;26.10;99.90
17571;DHT22;8903;52.220;20.978;2023-09-18T10:33:20;26.20;99.90
17571;DHT22;8903;52.220;20.978;2023-09-18T10:35:48;26.30;99.90
17571;DHT22;8903;52.220;20.978;2023-09-18T10:38:15;26.30;99.90
17571;DHT22;8903;52.220;20.978;2023-09-18T10:40:44;26.40;99.90
17571;DHT22;8903;52.220;20.978;2023-09-18T10:43:16;26.40;99.90
17571;DHT22;8903;52.220;20.978;2023-09-18T10:45:44;26.50;99.90
17571;DHT22;8903;52.220;20.978;2023-09-18T10:48:12;26.50;99.90
17571;DHT22;8903;52.220;20.978;2023-09-18T10:50:42;26.50;99.90
17571;DHT22;8903;52.220;20.978;2023-09-18T10:53:11;26.50;99.90
17571;DHT22;8903;52.220;20.978;2023-09-18T10:55:38;26.60;99.90
17571;DHT22;8903;52.220;20.978;2023-09-18T10:58:06;26.60;99.90
17571;DHT22;8903;52.220;20.978;2023-09-18T11:00:34;26.60;99.90
17571;DHT22;8903;52.220;20.978;2023-09-18T11:03:13;26.50;99.90
17571;DHT22;8903;52.220;20.978;2023-09-18T11:05:44;26.60;99.90
17571;DHT22;8903;52.220;20.978;2023-09-18T11:08:27;26.60;99.90
17571;DHT22;8903;52.220;20.978;2023-09-18T11:10:56;26.70;99.90
17571;DHT22;8903;52.220;20.978;2023-09-18T11:13:36;26.70;99.90
17571;DHT22;8903;52.220;20.978;2023-09-18T11:16:17;26.70;99.90
17571;DHT22;8903;52.220;20.978;2023-09-18T11:18:47;26.80;99.70
17571;DHT22;8903;52.220;20.978;2023-09-18T11:21:16;26.80;99.80
17571;DHT22;8903;52.220;20.978;2023-09-18T11:23:44;26.80;99.90
17571;DHT22;8903;52.220;20.978;2023-09-18T11:26:11;26.90;99.90
17571;DHT22;8903;52.220;20.978;2023-09-18T11:28:42;27.90;98.80
17571;DHT22;8903;52.220;20.978;2023-09-18T11:31:09;28.90;97.80
17571;DHT22;8903;52.220;20.978;2023-09-18T11:33:40;28.90;97.70
17571;DHT22;8903;52.220;20.978;2023-09-18T11:36:12;29.10;97.50
17571;DHT22;8903;52.220;20.978;2023-09-18T11:38:53;29.40;97.20
17571;DHT22;8903;52.220;20.978;2023-09-18T11:41:22;29.60;97.20
17571;DHT22;8903;52.220;20.978;2023-09-18T11:43:50;29.80;96.80
17571;DHT22;8903;52.220;20.978;2023-09-18T11:46:21;30.00;96.30
17571;DHT22;8903;52.220;20.978;2023-09-18T11:48:50;30.20;96.10
17571;DHT22;8903;52.220;20.978;2023-09-18T11:51:22;30.30;95.70
17571;DHT22;8903;52.220;20.978;2023-09-18T11:53:53;30.40;95.60
17571;DHT22;8903;52.220;20.978;2023-09-18T11:56:21;30.60;95.70
17571;DHT22;8903;52.220;20.978;2023-09-18T11:58:49;30.60;95.50
17571;DHT22;8903;52.220;20.978;2023-09-18T12:01:18;30.60;95.20
17571;DHT22;8903;52.220;20.978;2023-09-18T12:03:45;31.20;94.40
17571;DHT22;8903;52.220;20.978;2023-09-18T12:06:16;32.00;93.70
17571;DHT22;8903;52.220;20.978;2023-09-18T12:08:43;31.70;93.80
17571;DHT22;8903;52.220;20.978;2023-09-18T12:11:12;31.20;94.20
17571;DHT22;8903;52.220;20.978;2023-09-18T12:13:42;31.80;93.80
17571;DHT22;8903;52.220;20.978;2023-09-18T12:16:10;31.70;93.70
17571;DHT22;8903;52.220;20.978;2023-09-18T12:18:37;31.40;93.80
17571;DHT22;8903;52.220;20.978;2023-09-18T12:21:15;30.90;94.10
17571;DHT22;8903;52.220;20.978;2023-09-18T12:23:44;30.90;94.50
17571;DHT22;8903;52.220;20.978;2023-09-18T12:26:12;30.80;94.40
17571;DHT22;8903;52.220;20.978;2023-09-18T12:28:40;30.90;94.40
17571;DHT22;8903;52.220;20.978;2023-09-18T12:31:10;30.90;94.20
17571;DHT22;8903;52.220;20.978;2023-09-18T12:33:38;30.90;94.30
17571;DHT22;8903;52.220;20.978;2023-09-18T12:36:06;31.00;94.00
17571;DHT22;8903;52.220;20.978;2023-09-18T12:38:35;31.10;93.40
17571;DHT22;8903;52.220;20.978;2023-09-18T12:41:03;31.30;93.50
17571;DHT22;8903;52.220;20.978;2023-09-18T12:43:37;31.70;93.40
17571;DHT22;8903;52.220;20.978;2023-09-18T12:46:05;32.20;92.90
17571;DHT22;8903;52.220;20.978;2023-09-18T12:48:36;32.40;92.60
17571;DHT22;8903;52.220;20.978;2023-09-18T12:51:04;31.80;92.40
17571;DHT22;8903;52.220;20.978;2023-09-18T12:53:30;31.70;93.20
17571;DHT22;8903;52.220;20.978;2023-09-18T12:56:09;31.60;93.80
17571;DHT22;8903;52.220;20.978;2023-09-18T12:58:37;31.50;93.60
17571;DHT22;8903;52.220;20.978;2023-09-18T13:01:05;31.50;93.80
17571;DHT22;8903;52.220;20.978;2023-09-18T13:03:35;31.30;94.00
17571;DHT22;8903;52.220;20.978;2023-09-18T13:06:10;31.10;94.10
17571;DHT22;8903;52.220;20.978;2023-09-18T13:08:38;31.00;94.10
17571;DHT22;8903;52.220;20.978;2023-09-18T13:11:05;30.70;94.40
17571;DHT22;8903;52.220;20.978;2023-09-18T13:13:34;30.40;94.70
17571;DHT22;8903;52.220;20.978;2023-09-18T13:16:05;30.40;94.60
17571;DHT22;8903;52.220;20.978;2023-09-18T13:18:32;30.50;94.90
17571;DHT22;8903;52.220;20.978;2023-09-18T13:20:59;30.60;94.90
17571;DHT22;8903;52.220;20.978;2023-09-18T13:23:35;30.70;94.80
17571;DHT22;8903;52.220;20.978;2023-09-18T13:26:03;30.50;95.10
17571;DHT22;8903;52.220;20.978;2023-09-18T13:28:31;30.30;95.30
17571;DHT22;8903;52.220;20.978;2023-09-18T13:31:01;30.30;95.20
17571;DHT22;8903;52.220;20.978;2023-09-18T13:33:30;30.30;94.60
17571;DHT22;8903;52.220;20.978;2023-09-18T13:35:59;30.10;94.80
17571;DHT22;8903;52.220;20.978;2023-09-18T13:38:26;30.20;94.90
17571;DHT22;8903;52.220;20.978;2023-09-18T13:40:53;30.30;94.80
17571;DHT22;8903;52.220;20.978;2023-09-18T13:43:20;30.30;95.10
17571;DHT22;8903;52.220;20.978;2023-09-18T13:45:49;30.20;94.40
17571;DHT22;8903;52.220;20.978;2023-09-18T13:48:19;30.30;94.90
17571;DHT22;8903;52.220;20.978;2023-09-18T13:50:47;30.30;94.90
17571;DHT22;8903;52.220;20.978;2023-09-18T13:53:14;30.40;94.80
17571;DHT22;8903;52.220;20.978;2023-09-18T13:55:41;30.40;94.80
17571;DHT22;8903;52.220;20.978;2023-09-18T13:58:08;30.40;94.80
17571;DHT22;8903;52.220;20.978;2023-09-18T14:00:36;30.40;94.50
17571;DHT22;8903;52.220;20.978;2023-09-18T14:03:03;30.60;94.20
17571;DHT22;8903;52.220;20.978;2023-09-18T14:05:32;30.50;93.70
17571;DHT22;8903;52.220;20.978;2023-09-18T14:08:00;30.50;94.00
17571;DHT22;8903;52.220;20.978;2023-09-18T14:10:28;30.70;94.30
17571;DHT22;8903;52.220;20.978;2023-09-18T14:12:55;30.80;94.20
17571;DHT22;8903;52.220;20.978;2023-09-18T14:15:23;31.00;94.00
17571;DHT22;8903;52.220;20.978;2023-09-18T14:17:50;30.90;93.80
17571;DHT22;8903;52.220;20.978;2023-09-18T14:20:17;30.80;94.20
17571;DHT22;8903;52.220;20.978;2023-09-18T14:22:47;30.90;94.00
17571;DHT22;8903;52.220;20.978;2023-09-18T14:25:15;30.80;93.90
17571;DHT22;8903;52.220;20.978;2023-09-18T14:27:43;30.60;94.10
17571;DHT22;8903;52.220;20.978;2023-09-18T14:30:11;30.60;94.50
17571;DHT22;8903;52.220;20.978;2023-09-18T14:32:39;30.40;94.30
17571;DHT22;8903;52.220;20.978;2023-09-18T14:35:06;30.30;94.60
17571;DHT22;8903;52.220;20.978;2023-09-18T14:37:34;30.20;94.60
17571;DHT22;8903;52.220;20.978;2023-09-18T14:40:04;30.30;94.70
17571;DHT22;8903;52.220;20.978;2023-09-18T14:42:31;30.40;94.40
17571;DHT22;8903;52.220;20.978;2023-09-18T14:44:58;30.40;94.50
17571;DHT22;8903;52.220;20.978;2023-09-18T14:47:26;30.40;94.50
17571;DHT22;8903;52.220;20.978;2023-09-18T14:49:53;30.50;94.50
17571;DHT22;8903;52.220;20.978;2023-09-18T14:52:20;30.60;94.50
17571;DHT22;8903;52.220;20.978;2023-09-18T14:54:51;30.40;94.50
17571;DHT22;8903;52.220;20.978;2023-09-18T14:57:19;30.10;94.80
17571;DHT22;8903;52.220;20.978;2023-09-18T14:59:46;30.00;94.90
17571;DHT22;8903;52.220;20.978;2023-09-18T15:02:14;29.80;95.00
17571;DHT22;8903;52.220;20.978;2023-09-18T15:04:42;29.80;94.90
17571;DHT22;8903;52.220;20.978;2023-09-18T15:07:09;29.40;95.00
17571;DHT22;8903;52.220;20.978;2023-09-18T15:09:36;29.30;95.30
17571;DHT22;8903;52.220;20.978;2023-09-18T15:12:03;29.10;95.50
17571;DHT22;8903;52.220;20.978;2023-09-18T15:14:34;28.90;95.60
17571;DHT22;8903;52.220;20.978;2023-09-18T15:17:02;28.70;95.90
17571;DHT22;8903;52.220;20.978;2023-09-18T15:19:29;28.60;96.10
17571;DHT22;8903;52.220;20.978;2023-09-18T15:21:56;28.40;96.30
17571;DHT22;8903;52.220;20.978;2023-09-18T15:24:23;28.30;96.40
17571;DHT22;8903;52.220;20.978;2023-09-18T15:26:50;28.30;96.50
17571;DHT22;8903;52.220;20.978;2023-09-18T15:29:17;28.10;96.80
17571;DHT22;8903;52.220;20.978;2023-09-18T15:31:45;28.00;97.00
17571;DHT22;8903;52.220;20.978;2023-09-18T15:34:13;27.80;97.10
17571;DHT22;8903;52.220;20.978;2023-09-18T15:36:40;27.60;97.30